Bowman, Indiana
Current Conditions -  °F | °C
As of 1:55 PM on Tuesday 21 Oct 2014 (Local Time) from KDCY Reporting Station
Broken Clouds Broken Clouds  
Wind Chill: 61°   Ceiling: 4700
Heat Index: 61°   Visibility: 10mi
Dew Point: 42°   Wind: 12mph
Humidity: 49%   Direction: 350°N
Pressure: 30.08"   Gusts: NA
Location:  38.4723°N, 87.3105°W
Report Text: KDCY 211855Z AUTO 35010KT 10SM BKN047 16/06 A3008 RMK AO2 T01610055
Loading
Personal Weather Stations






























Interactive Weather Map
Tropical Storm Tracking
New forecast layout! Learn more

10-Day Weather Forecast

Advertisements
Track Severe Weather on mobile